Terminal Aerodrome Forecast
Issued by NWS

Home | Current Version | Previous Version | Text Only | Print | Product List | Glossary On
Versions: 1 2 3 4 5 6 7 8 9 10
227
FTPA31 PHFO 242323
TAFHTO
TAF
PHTO 242323Z 2500/2524 09010KT P6SM FEW030 SCT050 BKN200
     FM250400 23005KT P6SM SCT030 BKN045
     FM252000 09010KT P6SM FEW030 SCT050=

USA.gov is the U.S. government's official web portal to all federal, state and local government web resources and services.